Ivorydale, Ohio
Current Conditions -  °F | °C
As of 10:53 PM on Monday 22 Dec 2014 (Local Time) from KLUK Reporting Station
Overcast Overcast  
Wind Chill: 44°   Ceiling: 8000
Heat Index: 44°   Visibility: 10mi
Dew Point: 38°   Wind: 0mph
Humidity: 79%   Direction: NA
Pressure: 29.74"   Gusts: NA
Location:  39.1668°N, 84.4971°W
Report Text: KLUK 230353Z AUTO 00000KT 10SM BKN080 OVC100 07/03 A2974 RMK AO2 RAB41E51 SLP074 P0000 T00670033
Loading
Personal Weather Stations






























Interactive Weather Map New forecast layout! Learn more

10-Day Weather Forecast

Advertisements
Track Severe Weather on mobile